KLHB/LHB METAR and TAF weather

Enter ICAO airport designator
Station Type Date Time Source
KLHB METAR 2020/09/22 17:35 UTC NOAA

KLHB 221735Z AUTO 04007KT 10SM -RA BKN008 OVC012 23/22 A2997 RMK AO2 P0002 T02290215


Station Type Date Time Source
KLHB Decoded METAR 2020/09/22 17:35 UTC NOAA

Hearne, Hearne Municipal Airport, TX, United States (KLHB) 30-52-18N 096-37-20W
Sep 22, 2020 - 01:35 PM EDT / 2020.09.22 1735 UTC
Wind: from the NE (040 degrees) at 8 MPH (7 KT):0
Visibility: 10 mile(s):0
Sky conditions: overcast
Weather: light rain
Precipitation last hour: 0.02 inches
Temperature: 73.2 F (22.9 C)
Dew Point: 70.7 F (21.5 C)
Relative Humidity: 91%
Pressure (altimeter): 29.97 in. Hg (1014 hPa)
ob: KLHB 221735Z AUTO 04007KT 10SM -RA BKN008 OVC012 23/22 A2997 RMK AO2 P0002 T02290215
cycle: 17

Station Type Date Time Source
KLHB TAF UTC NOAA

Error!

Example: see airport list